createdAt,value
2023-02-23T00:02:27.550Z,26.77
2023-02-23T00:09:35.268Z,28.35
2023-02-23T00:16:37.437Z,25.23
2023-02-23T00:23:39.227Z,27.83
2023-02-23T00:30:40.813Z,26.10
2023-02-23T00:37:47.941Z,32.83
2023-02-23T00:44:49.902Z,27.42
2023-02-23T00:51:52.234Z,27.98
2023-02-23T00:58:54.258Z,26.20
2023-02-23T01:06:05.234Z,30.67
2023-02-23T01:13:06.782Z,28.67
2023-02-23T01:20:18.109Z,33.85
2023-02-23T01:27:20.033Z,33.90
2023-02-23T01:34:21.678Z,43.45
2023-02-23T01:41:24.108Z,41.50
2023-02-23T01:48:27.950Z,44.53
2023-02-23T01:55:29.879Z,43.00
2023-02-23T02:02:34.344Z,53.00
2023-02-23T02:09:38.366Z,53.72
2023-02-23T02:17:02.450Z,58.58
2023-02-23T02:24:26.378Z,55.53
2023-02-23T02:32:02.056Z,59.50
2023-02-23T02:39:23.852Z,69.47
2023-02-23T02:46:28.667Z,68.28
2023-02-23T02:53:47.798Z,74.03
2023-02-23T03:01:08.029Z,73.85
2023-02-23T03:08:41.601Z,93.55
2023-02-23T03:16:33.123Z,100.38
2023-02-23T03:24:13.183Z,60.85
2023-02-23T03:31:42.089Z,29.43
2023-02-23T03:39:13.350Z,20.73
2023-02-23T03:46:34.135Z,20.45
2023-02-23T03:54:13.511Z,22.02
2023-02-23T04:01:33.575Z,24.35
2023-02-23T04:08:55.210Z,21.83
2023-02-23T04:16:08.372Z,14.77
2023-02-23T04:23:09.968Z,21.95
2023-02-23T04:30:12.002Z,23.58
2023-02-23T04:37:13.666Z,20.23
2023-02-23T04:44:15.214Z,25.98
2023-02-23T04:51:17.076Z,18.30
2023-02-23T04:58:18.763Z,17.83
2023-02-23T05:05:21.367Z,27.58
2023-02-23T05:12:22.869Z,19.25
2023-02-23T05:19:24.724Z,30.45
2023-02-23T05:26:26.285Z,35.20
2023-02-23T05:33:27.820Z,30.70
2023-02-23T05:40:29.326Z,36.53
2023-02-23T05:47:31.444Z,56.13
2023-02-23T05:54:33.045Z,53.88
2023-02-23T06:01:34.784Z,62.33
2023-02-23T06:08:36.362Z,53.58
2023-02-23T06:15:38.357Z,63.60
2023-02-23T06:22:39.944Z,71.50
2023-02-23T06:29:41.612Z,63.88
2023-02-23T06:36:43.251Z,66.80
2023-02-23T06:43:55.617Z,61.90
2023-02-23T06:51:00.327Z,65.10
2023-02-23T06:58:01.918Z,59.35
2023-02-23T07:05:04.680Z,61.25
2023-02-23T07:12:06.409Z,55.05
2023-02-23T07:19:08.056Z,57.65
2023-02-23T07:26:09.740Z,57.78
2023-02-23T07:33:11.276Z,57.55
2023-02-23T07:40:13.157Z,62.80
2023-02-23T07:47:14.757Z,56.70
2023-02-23T07:54:16.736Z,50.88
2023-02-23T08:01:18.693Z,56.97
2023-02-23T08:08:20.533Z,56.13
2023-02-23T08:15:22.130Z,61.85
2023-02-23T08:22:23.738Z,62.58
2023-02-23T08:29:25.273Z,73.95
2023-02-23T08:36:27.957Z,87.00
2023-02-23T08:43:29.744Z,98.43
2023-02-23T08:50:31.271Z,106.65
2023-02-23T08:57:34.110Z,102.53
2023-02-23T09:04:35.753Z,112.70
2023-02-23T09:11:37.377Z,86.40
2023-02-23T09:18:39.116Z,92.97
2023-02-23T09:25:43.822Z,75.35
2023-02-23T09:32:45.652Z,78.25
2023-02-23T09:39:48.731Z,63.58
2023-02-23T09:47:22.691Z,58.47
2023-02-23T09:54:25.591Z,58.78
2023-02-23T10:01:36.334Z,67.10
2023-02-23T10:08:59.176Z,90.40
2023-02-23T10:16:06.694Z,167.63
2023-02-23T10:23:15.329Z,105.13
2023-02-23T10:30:29.100Z,28.13
2023-02-23T10:37:30.837Z,22.05
2023-02-23T10:44:32.505Z,25.50
2023-02-23T10:51:36.831Z,26.23
2023-02-23T10:58:48.873Z,23.25
2023-02-23T11:05:52.704Z,26.23
2023-02-23T11:12:54.211Z,87.75
2023-02-23T11:20:01.684Z,25.88
2023-02-23T11:27:07.743Z,33.97
2023-02-23T11:34:11.229Z,73.70
2023-02-23T11:41:23.503Z,44.65
2023-02-23T11:48:56.836Z,33.17
2023-02-23T11:55:59.360Z,24.42
2023-02-23T12:03:01.361Z,27.48
2023-02-23T12:10:19.102Z,29.77
2023-02-23T12:17:33.712Z,30.08
2023-02-23T12:24:45.450Z,29.20
2023-02-23T12:31:50.080Z,27.60
2023-02-23T12:38:57.890Z,30.83
2023-02-23T12:46:02.346Z,28.00
2023-02-23T12:53:42.986Z,27.40
2023-02-23T13:00:53.059Z,35.53
2023-02-23T13:15:24.614Z,25.08
2023-02-23T13:22:52.871Z,25.92
2023-02-23T13:29:54.965Z,26.75
2023-02-23T13:36:57.182Z,26.00
2023-02-23T13:44:03.020Z,52.28
2023-02-23T13:51:30.443Z,33.28
2023-02-23T13:58:32.046Z,44.53
2023-02-23T14:05:42.195Z,43.22
2023-02-23T14:13:17.910Z,40.08
2023-02-23T14:20:38.237Z,38.90
2023-02-23T14:34:58.478Z,62.72
2023-02-23T14:42:00.064Z,68.43
2023-02-23T14:49:02.583Z,62.80
2023-02-23T14:56:04.653Z,79.07
2023-02-23T15:03:12.454Z,72.90
2023-02-23T15:10:32.895Z,84.00
2023-02-23T15:24:44.099Z,114.03
2023-02-23T15:31:52.218Z,105.57
2023-02-23T15:38:55.167Z,82.10
2023-02-23T15:45:59.354Z,66.28
2023-02-23T15:53:03.330Z,73.82
2023-02-23T16:00:10.610Z,67.18
2023-02-23T16:07:20.122Z,52.70
2023-02-23T16:14:22.642Z,61.30
2023-02-23T16:21:24.383Z,64.75
2023-02-23T16:28:30.760Z,67.32
2023-02-23T16:35:49.878Z,57.28
2023-02-23T16:42:53.311Z,88.60
2023-02-23T16:49:55.511Z,78.95
2023-02-23T16:56:57.155Z,70.07
2023-02-23T17:03:59.083Z,70.00
2023-02-23T17:11:00.662Z,76.93
2023-02-23T17:18:02.229Z,76.07
2023-02-23T17:25:04.710Z,80.75
2023-02-23T17:32:06.480Z,94.60
2023-02-23T17:39:09.863Z,79.03
2023-02-23T17:46:11.750Z,161.75
2023-02-23T17:53:13.425Z,124.80
2023-02-23T18:00:16.238Z,240.52
2023-02-23T18:07:18.410Z,43.42
2023-02-23T18:14:19.959Z,50.20
2023-02-23T18:21:22.088Z,50.75
2023-02-23T18:28:23.702Z,99.47
2023-02-23T18:35:25.363Z,163.25
2023-02-23T18:42:27.077Z,63.35
2023-02-23T18:49:28.628Z,57.97
2023-02-23T18:56:30.415Z,64.45
2023-02-23T19:03:31.943Z,53.08
2023-02-23T19:10:33.994Z,44.60
2023-02-23T19:17:35.749Z,52.78
2023-02-23T19:24:38.164Z,45.22
2023-02-23T19:31:39.892Z,47.50
2023-02-23T19:38:44.251Z,39.80
2023-02-23T19:45:46.663Z,41.60
2023-02-23T19:52:48.427Z,114.75
2023-02-23T19:59:50.139Z,38.25
2023-02-23T20:06:52.335Z,36.50
2023-02-23T20:13:54.333Z,31.70
2023-02-23T20:20:55.841Z,29.13
2023-02-23T20:27:59.303Z,36.38
2023-02-23T20:35:00.908Z,58.88
2023-02-23T20:42:02.440Z,62.90
2023-02-23T20:49:04.093Z,72.53
2023-02-23T20:56:06.787Z,66.72
2023-02-23T21:03:08.375Z,60.38
2023-02-23T21:10:10.509Z,80.18
2023-02-23T21:17:12.114Z,94.43
2023-02-23T21:24:14.954Z,60.60
2023-02-23T21:31:16.549Z,47.10
2023-02-23T21:38:18.132Z,71.82
2023-02-23T21:45:19.756Z,66.40
2023-02-23T21:52:21.403Z,70.22
2023-02-23T21:59:22.968Z,87.57
2023-02-23T22:06:26.415Z,89.03
2023-02-23T22:13:27.934Z,91.53
2023-02-23T22:20:29.447Z,83.63
2023-02-23T22:27:31.277Z,84.07
2023-02-23T22:34:32.832Z,114.00
2023-02-23T22:41:42.075Z,113.35
2023-02-23T22:48:46.998Z,115.72
2023-02-23T22:55:53.981Z,107.68
2023-02-23T23:02:55.538Z,103.82
2023-02-23T23:09:58.514Z,89.55
2023-02-23T23:17:00.151Z,100.47
2023-02-23T23:24:05.451Z,111.47
2023-02-23T23:31:10.352Z,119.05
2023-02-23T23:38:14.339Z,108.45
2023-02-23T23:45:17.574Z,99.88
2023-02-23T23:52:20.661Z,120.13
2023-02-23T23:59:23.029Z,117.00
